Dundas, Virginia
Current Conditions -  °F | °C
As of 4:35 PM on Thursday 18 Dec 2014 (Local Time) from KW31 Reporting Station
Clear Clear  
Wind Chill: 44°   Ceiling: Unl
Heat Index: 44°   Visibility: 10mi
Dew Point: 25°   Wind: 0mph
Humidity: 48%   Direction: NA
Pressure: 30.07"   Gusts: NA
Location:  36.92°N, 78.02°W
Report Text: KW31 182135Z AUTO 00000KT 10SM CLR 07/M04 A3007 RMK AO1 T00671037
Loading
Personal Weather Stations






























Interactive Weather Map New forecast layout! Learn more

10-Day Weather Forecast

Advertisements
Track Severe Weather on mobile